sensor_id;sensor_type;location;lat;lon;timestamp;pressure;altitude;pressure_sealevel;temperature;humidity
76762;BME280;65705;51.032;13.790;2023-08-21T00:00:08;100913.53;;;24.67;74.91
76762;BME280;65705;51.032;13.790;2023-08-21T00:02:37;100914.84;;;24.64;75.47
76762;BME280;65705;51.032;13.790;2023-08-21T00:05:02;100915.06;;;24.63;75.50
76762;BME280;65705;51.032;13.790;2023-08-21T00:07:28;100914.47;;;24.61;75.90
76762;BME280;65705;51.032;13.790;2023-08-21T00:09:54;100915.75;;;24.47;76.08
76762;BME280;65705;51.032;13.790;2023-08-21T00:12:19;100915.75;;;24.47;76.12
76762;BME280;65705;51.032;13.790;2023-08-21T00:14:45;100916.63;;;24.41;74.89
76762;BME280;65705;51.032;13.790;2023-08-21T00:17:11;100903.47;;;24.39;75.33
76762;BME280;65705;51.032;13.790;2023-08-21T00:19:36;100904.84;;;24.42;74.77
76762;BME280;65705;51.032;13.790;2023-08-21T00:22:02;100913.00;;;24.35;75.07
76762;BME280;65705;51.032;13.790;2023-08-21T00:24:28;100910.78;;;24.32;75.29
76762;BME280;65705;51.032;13.790;2023-08-21T00:26:53;100915.69;;;24.35;74.78
76762;BME280;65705;51.032;13.790;2023-08-21T00:29:19;100911.75;;;24.38;74.81
76762;BME280;65705;51.032;13.790;2023-08-21T00:31:46;100907.88;;;24.34;74.57
76762;BME280;65705;51.032;13.790;2023-08-21T00:34:11;100900.06;;;24.32;74.65
76762;BME280;65705;51.032;13.790;2023-08-21T00:36:37;100893.38;;;24.35;74.68
76762;BME280;65705;51.032;13.790;2023-08-21T00:39:03;100889.56;;;24.31;74.91
76762;BME280;65705;51.032;13.790;2023-08-21T00:41:28;100893.75;;;24.38;74.47
76762;BME280;65705;51.032;13.790;2023-08-21T00:43:54;100893.75;;;24.38;73.96
76762;BME280;65705;51.032;13.790;2023-08-21T00:46:20;100886.16;;;24.35;73.52
76762;BME280;65705;51.032;13.790;2023-08-21T00:48:46;100885.44;;;24.28;73.46
76762;BME280;65705;51.032;13.790;2023-08-21T00:51:14;100891.06;;;24.27;73.55
76762;BME280;65705;51.032;13.790;2023-08-21T00:53:41;100896.66;;;24.25;73.45
76762;BME280;65705;51.032;13.790;2023-08-21T00:56:07;100892.91;;;24.26;73.41
76762;BME280;65705;51.032;13.790;2023-08-21T00:58:33;100886.72;;;24.26;73.81
76762;BME280;65705;51.032;13.790;2023-08-21T01:00:59;100887.19;;;24.23;74.16
76762;BME280;65705;51.032;13.790;2023-08-21T01:03:25;100890.09;;;24.21;74.29
76762;BME280;65705;51.032;13.790;2023-08-21T01:05:51;100887.97;;;24.12;75.11
76762;BME280;65705;51.032;13.790;2023-08-21T01:14:29;100881.28;;;24.02;75.50
76762;BME280;65705;51.032;13.790;2023-08-21T01:16:59;100884.19;;;24.01;75.71
76762;BME280;65705;51.032;13.790;2023-08-21T01:19:36;100882.94;;;24.04;75.87
76762;BME280;65705;51.032;13.790;2023-08-21T01:22:03;100889.69;;;24.06;75.45
76762;BME280;65705;51.032;13.790;2023-08-21T01:24:29;100888.72;;;24.00;75.46
76762;BME280;65705;51.032;13.790;2023-08-21T01:26:55;100891.25;;;23.95;75.08
76762;BME280;65705;51.032;13.790;2023-08-21T01:29:21;100894.97;;;23.94;74.86
76762;BME280;65705;51.032;13.790;2023-08-21T01:31:54;100895.34;;;23.98;75.21
76762;BME280;65705;51.032;13.790;2023-08-21T01:34:22;100901.84;;;23.90;75.34
76762;BME280;65705;51.032;13.790;2023-08-21T01:36:49;100899.03;;;23.85;75.67
76762;BME280;65705;51.032;13.790;2023-08-21T01:39:15;100897.97;;;23.68;76.67
76762;BME280;65705;51.032;13.790;2023-08-21T01:41:42;100895.91;;;23.70;77.37
76762;BME280;65705;51.032;13.790;2023-08-21T01:44:07;100904.91;;;23.76;77.67
76762;BME280;65705;51.032;13.790;2023-08-21T01:46:33;100896.03;;;23.75;78.10
76762;BME280;65705;51.032;13.790;2023-08-21T01:48:59;100894.19;;;23.76;78.90
76762;BME280;65705;51.032;13.790;2023-08-21T01:51:24;100884.66;;;23.80;78.74
76762;BME280;65705;51.032;13.790;2023-08-21T01:53:50;100886.75;;;23.78;79.45
76762;BME280;65705;51.032;13.790;2023-08-21T01:56:16;100883.22;;;23.77;78.87
76762;BME280;65705;51.032;13.790;2023-08-21T01:58:42;100873.63;;;23.70;79.35
76762;BME280;65705;51.032;13.790;2023-08-21T02:01:07;100879.31;;;23.62;79.47
76762;BME280;65705;51.032;13.790;2023-08-21T02:03:33;100878.06;;;23.64;79.14
76762;BME280;65705;51.032;13.790;2023-08-21T02:05:59;100878.47;;;23.61;79.58
76762;BME280;65705;51.032;13.790;2023-08-21T02:08:30;100869.41;;;23.62;79.11
76762;BME280;65705;51.032;13.790;2023-08-21T02:10:57;100872.38;;;23.54;78.77
76762;BME280;65705;51.032;13.790;2023-08-21T02:13:22;100874.94;;;23.49;79.62
76762;BME280;65705;51.032;13.790;2023-08-21T02:15:48;100886.53;;;23.43;79.98
76762;BME280;65705;51.032;13.790;2023-08-21T02:18:14;100878.06;;;23.46;79.74
76762;BME280;65705;51.032;13.790;2023-08-21T02:20:40;100870.44;;;23.43;79.70
76762;BME280;65705;51.032;13.790;2023-08-21T02:23:07;100876.41;;;23.45;80.05
76762;BME280;65705;51.032;13.790;2023-08-21T02:25:33;100889.94;;;23.32;80.18
76762;BME280;65705;51.032;13.790;2023-08-21T02:27:59;100890.50;;;23.16;81.45
76762;BME280;65705;51.032;13.790;2023-08-21T02:30:24;100889.38;;;23.06;81.73
76762;BME280;65705;51.032;13.790;2023-08-21T02:32:52;100883.66;;;23.20;81.29
76762;BME280;65705;51.032;13.790;2023-08-21T02:35:17;100885.91;;;23.23;80.76
76762;BME280;65705;51.032;13.790;2023-08-21T02:37:43;100887.28;;;23.32;80.29
76762;BME280;65705;51.032;13.790;2023-08-21T02:40:09;100882.50;;;23.34;79.99
76762;BME280;65705;51.032;13.790;2023-08-21T02:42:35;100885.56;;;23.38;79.77
76762;BME280;65705;51.032;13.790;2023-08-21T02:45:02;100882.31;;;23.36;80.54
76762;BME280;65705;51.032;13.790;2023-08-21T02:47:42;100885.38;;;23.39;80.10
76762;BME280;65705;51.032;13.790;2023-08-21T02:50:09;100880.75;;;23.46;80.05
76762;BME280;65705;51.032;13.790;2023-08-21T02:52:35;100884.91;;;23.42;80.46
76762;BME280;65705;51.032;13.790;2023-08-21T02:55:02;100882.44;;;23.41;80.17
76762;BME280;65705;51.032;13.790;2023-08-21T02:57:28;100880.81;;;23.40;80.40
76762;BME280;65705;51.032;13.790;2023-08-21T02:59:55;100878.72;;;23.42;80.31
76762;BME280;65705;51.032;13.790;2023-08-21T03:02:21;100869.44;;;23.44;80.48
76762;BME280;65705;51.032;13.790;2023-08-21T03:04:47;100874.56;;;23.46;79.99
76762;BME280;65705;51.032;13.790;2023-08-21T03:07:14;100888.59;;;23.41;80.24
76762;BME280;65705;51.032;13.790;2023-08-21T03:09:40;100880.44;;;23.36;80.58
76762;BME280;65705;51.032;13.790;2023-08-21T03:12:07;100884.81;;;23.31;80.77
76762;BME280;65705;51.032;13.790;2023-08-21T03:14:33;100880.28;;;23.31;81.22
76762;BME280;65705;51.032;13.790;2023-08-21T03:17:00;100882.41;;;23.23;81.74
76762;BME280;65705;51.032;13.790;2023-08-21T03:19:26;100890.31;;;23.18;82.75
76762;BME280;65705;51.032;13.790;2023-08-21T03:21:51;100889.03;;;23.20;82.61
76762;BME280;65705;51.032;13.790;2023-08-21T03:24:17;100885.47;;;23.26;82.05
76762;BME280;65705;51.032;13.790;2023-08-21T03:26:43;100886.06;;;23.28;81.99
76762;BME280;65705;51.032;13.790;2023-08-21T03:29:09;100885.03;;;23.29;81.97
76762;BME280;65705;51.032;13.790;2023-08-21T03:31:35;100881.13;;;23.25;82.72
76762;BME280;65705;51.032;13.790;2023-08-21T03:34:01;100895.59;;;23.24;82.65
76762;BME280;65705;51.032;13.790;2023-08-21T03:36:27;100890.81;;;23.26;82.96
76762;BME280;65705;51.032;13.790;2023-08-21T03:39:01;100892.44;;;23.27;83.12
76762;BME280;65705;51.032;13.790;2023-08-21T03:41:28;100902.13;;;23.28;82.82
76762;BME280;65705;51.032;13.790;2023-08-21T03:43:54;100895.34;;;23.26;83.28
76762;BME280;65705;51.032;13.790;2023-08-21T03:46:19;100884.25;;;23.22;83.41
76762;BME280;65705;51.032;13.790;2023-08-21T03:48:45;100889.47;;;23.17;84.16
76762;BME280;65705;51.032;13.790;2023-08-21T03:51:11;100887.44;;;23.13;84.50
76762;BME280;65705;51.032;13.790;2023-08-21T03:53:37;100895.09;;;23.09;84.75
76762;BME280;65705;51.032;13.790;2023-08-21T03:56:03;100897.19;;;23.07;85.07
76762;BME280;65705;51.032;13.790;2023-08-21T03:58:28;100899.72;;;23.02;85.13
76762;BME280;65705;51.032;13.790;2023-08-21T04:00:54;100906.13;;;23.01;85.52
76762;BME280;65705;51.032;13.790;2023-08-21T04:03:20;100902.38;;;23.02;85.51
76762;BME280;65705;51.032;13.790;2023-08-21T04:05:47;100910.56;;;23.07;85.15
76762;BME280;65705;51.032;13.790;2023-08-21T04:08:13;100901.88;;;23.12;84.50
76762;BME280;65705;51.032;13.790;2023-08-21T04:10:39;100906.88;;;23.08;85.20
76762;BME280;65705;51.032;13.790;2023-08-21T04:13:05;100909.31;;;23.10;85.08
76762;BME280;65705;51.032;13.790;2023-08-21T04:15:31;100902.94;;;23.11;85.10
76762;BME280;65705;51.032;13.790;2023-08-21T04:17:57;100898.16;;;23.13;84.76
76762;BME280;65705;51.032;13.790;2023-08-21T04:20:23;100900.25;;;23.11;84.51
76762;BME280;65705;51.032;13.790;2023-08-21T04:22:49;100910.31;;;23.15;84.12
76762;BME280;65705;51.032;13.790;2023-08-21T04:25:15;100909.94;;;23.12;84.44
76762;BME280;65705;51.032;13.790;2023-08-21T04:27:41;100904.94;;;23.15;84.20
76762;BME280;65705;51.032;13.790;2023-08-21T04:30:08;100911.34;;;23.14;84.40
76762;BME280;65705;51.032;13.790;2023-08-21T04:32:34;100914.78;;;23.21;84.01
76762;BME280;65705;51.032;13.790;2023-08-21T04:35:00;100910.81;;;23.30;83.57
76762;BME280;65705;51.032;13.790;2023-08-21T04:37:26;100915.13;;;23.31;83.43
76762;BME280;65705;51.032;13.790;2023-08-21T04:39:53;100908.28;;;23.35;83.25
76762;BME280;65705;51.032;13.790;2023-08-21T04:42:19;100911.69;;;23.42;82.52
76762;BME280;65705;51.032;13.790;2023-08-21T04:44:45;100918.25;;;23.46;82.48
76762;BME280;65705;51.032;13.790;2023-08-21T04:47:22;100913.88;;;23.52;82.20
76762;BME280;65705;51.032;13.790;2023-08-21T04:49:50;100909.91;;;23.54;82.23
76762;BME280;65705;51.032;13.790;2023-08-21T04:52:16;100904.63;;;23.48;82.56
76762;BME280;65705;51.032;13.790;2023-08-21T04:54:43;100909.31;;;23.52;82.14
76762;BME280;65705;51.032;13.790;2023-08-21T04:57:09;100907.00;;;23.56;81.81
76762;BME280;65705;51.032;13.790;2023-08-21T04:59:35;100905.47;;;23.48;81.97
76762;BME280;65705;51.032;13.790;2023-08-21T05:02:02;100907.69;;;23.51;81.91
76762;BME280;65705;51.032;13.790;2023-08-21T05:04:28;100903.34;;;23.50;81.69
76762;BME280;65705;51.032;13.790;2023-08-21T05:06:54;100907.47;;;23.53;81.44
76762;BME280;65705;51.032;13.790;2023-08-21T05:09:20;100916.47;;;23.58;80.88
76762;BME280;65705;51.032;13.790;2023-08-21T05:11:46;100916.53;;;23.70;79.60
76762;BME280;65705;51.032;13.790;2023-08-21T05:14:13;100914.66;;;23.70;79.57
76762;BME280;65705;51.032;13.790;2023-08-21T05:16:39;100926.59;;;23.74;79.36
76762;BME280;65705;51.032;13.790;2023-08-21T05:19:05;100925.75;;;23.74;79.18
76762;BME280;65705;51.032;13.790;2023-08-21T05:21:31;100929.50;;;23.73;79.29
76762;BME280;65705;51.032;13.790;2023-08-21T05:23:56;100931.59;;;23.71;79.41
76762;BME280;65705;51.032;13.790;2023-08-21T05:26:22;100934.88;;;23.73;79.00
76762;BME280;65705;51.032;13.790;2023-08-21T05:28:48;100931.94;;;23.74;78.80
76762;BME280;65705;51.032;13.790;2023-08-21T05:31:14;100942.97;;;23.84;78.48
76762;BME280;65705;51.032;13.790;2023-08-21T05:33:52;100947.53;;;23.84;78.41
76762;BME280;65705;51.032;13.790;2023-08-21T05:36:18;100939.09;;;23.80;78.91
76762;BME280;65705;51.032;13.790;2023-08-21T05:38:44;100936.09;;;23.88;78.45
76762;BME280;65705;51.032;13.790;2023-08-21T05:41:09;100938.56;;;23.90;78.60
76762;BME280;65705;51.032;13.790;2023-08-21T05:43:35;100935.16;;;24.01;77.95
76762;BME280;65705;51.032;13.790;2023-08-21T05:46:02;100938.09;;;24.11;77.88
76762;BME280;65705;51.032;13.790;2023-08-21T05:48:28;100948.16;;;24.16;77.07
76762;BME280;65705;51.032;13.790;2023-08-21T05:50:53;100937.34;;;24.22;76.71
76762;BME280;65705;51.032;13.790;2023-08-21T05:53:19;100948.66;;;24.24;76.62
76762;BME280;65705;51.032;13.790;2023-08-21T05:55:45;100945.31;;;24.29;75.81
76762;BME280;65705;51.032;13.790;2023-08-21T05:58:11;100947.06;;;24.35;75.99
76762;BME280;65705;51.032;13.790;2023-08-21T06:00:38;100938.22;;;24.34;75.73
76762;BME280;65705;51.032;13.790;2023-08-21T06:03:05;100937.16;;;24.35;76.53
76762;BME280;65705;51.032;13.790;2023-08-21T06:05:59;100935.75;;;24.33;77.27
76762;BME280;65705;51.032;13.790;2023-08-21T06:08:25;100928.88;;;24.37;76.96
76762;BME280;65705;51.032;13.790;2023-08-21T06:10:51;100928.88;;;24.37;76.87
76762;BME280;65705;51.032;13.790;2023-08-21T06:13:17;100930.72;;;24.36;77.13
76762;BME280;65705;51.032;13.790;2023-08-21T06:15:44;100924.34;;;24.37;76.60
76762;BME280;65705;51.032;13.790;2023-08-21T06:18:14;100931.31;;;24.38;77.13
76762;BME280;65705;51.032;13.790;2023-08-21T06:20:43;100927.97;;;24.43;76.08
76762;BME280;65705;51.032;13.790;2023-08-21T06:23:12;100932.41;;;24.49;75.63
76762;BME280;65705;51.032;13.790;2023-08-21T06:25:38;100929.63;;;24.55;75.71
76762;BME280;65705;51.032;13.790;2023-08-21T06:28:04;100928.84;;;24.66;75.39
76762;BME280;65705;51.032;13.790;2023-08-21T06:30:31;100937.88;;;24.72;75.13
76762;BME280;65705;51.032;13.790;2023-08-21T06:32:57;100935.69;;;24.80;75.02
76762;BME280;65705;51.032;13.790;2023-08-21T06:35:25;100935.19;;;24.83;74.83
76762;BME280;65705;51.032;13.790;2023-08-21T06:37:52;100943.63;;;24.87;74.33
76762;BME280;65705;51.032;13.790;2023-08-21T06:40:20;100945.28;;;24.88;73.05
76762;BME280;65705;51.032;13.790;2023-08-21T06:42:46;100942.44;;;24.83;73.48
76762;BME280;65705;51.032;13.790;2023-08-21T06:45:13;100937.31;;;24.81;73.32
76762;BME280;65705;51.032;13.790;2023-08-21T06:47:39;100945.34;;;24.81;73.63
76762;BME280;65705;51.032;13.790;2023-08-21T06:50:06;100940.47;;;24.90;73.26
76762;BME280;65705;51.032;13.790;2023-08-21T06:52:31;100940.38;;;24.96;73.68
76762;BME280;65705;51.032;13.790;2023-08-21T06:54:57;100942.09;;;25.02;72.51
76762;BME280;65705;51.032;13.790;2023-08-21T06:57:23;100937.56;;;25.03;72.69
76762;BME280;65705;51.032;13.790;2023-08-21T06:59:48;100944.34;;;25.06;72.19
76762;BME280;65705;51.032;13.790;2023-08-21T07:02:14;100948.88;;;25.05;71.09
76762;BME280;65705;51.032;13.790;2023-08-21T07:04:40;100955.88;;;25.06;71.64
76762;BME280;65705;51.032;13.790;2023-08-21T07:07:05;100954.03;;;25.07;72.03
76762;BME280;65705;51.032;13.790;2023-08-21T07:09:31;100945.63;;;25.15;71.33
76762;BME280;65705;51.032;13.790;2023-08-21T07:11:57;100947.16;;;25.22;71.45
76762;BME280;65705;51.032;13.790;2023-08-21T07:14:22;100954.50;;;25.27;70.74
76762;BME280;65705;51.032;13.790;2023-08-21T07:16:48;100949.81;;;25.34;70.78
76762;BME280;65705;51.032;13.790;2023-08-21T07:19:14;100955.25;;;25.45;70.71
76762;BME280;65705;51.032;13.790;2023-08-21T07:21:40;100953.81;;;25.43;70.83
76762;BME280;65705;51.032;13.790;2023-08-21T07:24:05;100949.72;;;25.40;71.27
76762;BME280;65705;51.032;13.790;2023-08-21T07:26:31;100960.22;;;25.30;71.50
76762;BME280;65705;51.032;13.790;2023-08-21T07:28:57;100962.63;;;25.38;71.28
76762;BME280;65705;51.032;13.790;2023-08-21T07:31:23;100964.44;;;25.49;71.28
76762;BME280;65705;51.032;13.790;2023-08-21T07:33:49;100966.59;;;25.47;71.28
76762;BME280;65705;51.032;13.790;2023-08-21T07:36:14;100957.94;;;25.45;71.26
76762;BME280;65705;51.032;13.790;2023-08-21T07:38:43;100970.31;;;25.46;71.59
76762;BME280;65705;51.032;13.790;2023-08-21T07:41:10;100971.56;;;25.44;70.36
76762;BME280;65705;51.032;13.790;2023-08-21T07:43:40;100966.91;;;25.39;70.33
76762;BME280;65705;51.032;13.790;2023-08-21T07:46:08;100971.22;;;25.40;70.72
76762;BME280;65705;51.032;13.790;2023-08-21T07:48:42;100980.72;;;25.43;70.80
76762;BME280;65705;51.032;13.790;2023-08-21T07:51:08;100975.00;;;25.39;70.93
76762;BME280;65705;51.032;13.790;2023-08-21T07:53:34;100968.00;;;25.38;69.61
76762;BME280;65705;51.032;13.790;2023-08-21T07:56:01;100972.31;;;25.39;70.03
76762;BME280;65705;51.032;13.790;2023-08-21T07:58:27;100966.53;;;25.24;70.13
76762;BME280;65705;51.032;13.790;2023-08-21T08:00:52;100969.63;;;25.39;69.58
76762;BME280;65705;51.032;13.790;2023-08-21T08:03:18;100965.75;;;25.47;69.55
76762;BME280;65705;51.032;13.790;2023-08-21T08:05:44;100968.31;;;25.53;69.28
76762;BME280;65705;51.032;13.790;2023-08-21T08:08:10;100965.63;;;25.53;69.41
76762;BME280;65705;51.032;13.790;2023-08-21T08:10:40;100962.69;;;25.55;68.83
76762;BME280;65705;51.032;13.790;2023-08-21T08:13:07;100968.41;;;25.58;68.54
76762;BME280;65705;51.032;13.790;2023-08-21T08:15:33;100962.59;;;25.61;68.04
76762;BME280;65705;51.032;13.790;2023-08-21T08:18:01;100965.88;;;25.63;67.31
76762;BME280;65705;51.032;13.790;2023-08-21T08:20:27;100968.31;;;25.65;67.69
76762;BME280;65705;51.032;13.790;2023-08-21T08:22:52;100977.31;;;25.70;67.95
76762;BME280;65705;51.032;13.790;2023-08-21T08:25:18;100970.75;;;25.55;68.86
76762;BME280;65705;51.032;13.790;2023-08-21T08:27:44;100964.69;;;25.59;69.27
76762;BME280;65705;51.032;13.790;2023-08-21T08:30:10;100969.69;;;25.67;69.60
76762;BME280;65705;51.032;13.790;2023-08-21T08:32:36;100975.75;;;25.74;69.93
76762;BME280;65705;51.032;13.790;2023-08-21T08:35:02;100983.00;;;25.85;69.56
76762;BME280;65705;51.032;13.790;2023-08-21T08:37:28;100981.81;;;25.81;68.62
76762;BME280;65705;51.032;13.790;2023-08-21T08:39:54;100977.59;;;25.97;68.26
76762;BME280;65705;51.032;13.790;2023-08-21T08:42:19;100974.88;;;26.09;67.92
76762;BME280;65705;51.032;13.790;2023-08-21T08:44:46;100967.50;;;26.16;67.84
76762;BME280;65705;51.032;13.790;2023-08-21T08:47:13;100975.19;;;26.24;68.07
76762;BME280;65705;51.032;13.790;2023-08-21T08:49:38;100977.16;;;26.28;67.67
76762;BME280;65705;51.032;13.790;2023-08-21T08:52:04;100974.63;;;26.22;67.81
76762;BME280;65705;51.032;13.790;2023-08-21T08:54:31;100971.22;;;26.26;67.97
76762;BME280;65705;51.032;13.790;2023-08-21T08:56:58;100971.31;;;26.31;67.71
76762;BME280;65705;51.032;13.790;2023-08-21T08:59:24;100973.94;;;26.15;67.79
76762;BME280;65705;51.032;13.790;2023-08-21T09:01:50;100971.94;;;26.10;67.63
76762;BME280;65705;51.032;13.790;2023-08-21T09:04:16;100968.06;;;26.18;68.13
76762;BME280;65705;51.032;13.790;2023-08-21T09:06:42;100975.44;;;26.22;68.65
76762;BME280;65705;51.032;13.790;2023-08-21T09:09:08;100970.47;;;26.31;67.92
76762;BME280;65705;51.032;13.790;2023-08-21T09:11:36;100975.59;;;26.44;67.57
76762;BME280;65705;51.032;13.790;2023-08-21T09:14:07;100972.44;;;26.63;67.77
76762;BME280;65705;51.032;13.790;2023-08-21T09:16:36;100971.91;;;26.78;66.85
76762;BME280;65705;51.032;13.790;2023-08-21T09:19:01;100973.94;;;26.87;64.50
76762;BME280;65705;51.032;13.790;2023-08-21T09:21:28;100975.50;;;27.00;64.47
76762;BME280;65705;51.032;13.790;2023-08-21T09:24:02;100975.44;;;27.12;62.92
76762;BME280;65705;51.032;13.790;2023-08-21T09:26:31;100975.09;;;27.25;62.24
76762;BME280;65705;51.032;13.790;2023-08-21T09:29:03;100971.97;;;27.16;61.41
76762;BME280;65705;51.032;13.790;2023-08-21T09:31:32;100972.25;;;27.31;61.53
76762;BME280;65705;51.032;13.790;2023-08-21T09:34:03;100972.31;;;27.36;61.01
76762;BME280;65705;51.032;13.790;2023-08-21T09:36:33;100976.13;;;27.57;60.88
76762;BME280;65705;51.032;13.790;2023-08-21T09:38:59;100978.75;;;27.73;60.24
76762;BME280;65705;51.032;13.790;2023-08-21T09:41:25;100977.38;;;27.49;59.83
76762;BME280;65705;51.032;13.790;2023-08-21T09:43:51;100976.53;;;27.49;59.30
76762;BME280;65705;51.032;13.790;2023-08-21T09:46:23;100973.50;;;27.62;59.70
76762;BME280;65705;51.032;13.790;2023-08-21T09:48:51;100969.78;;;27.68;59.56
76762;BME280;65705;51.032;13.790;2023-08-21T09:51:17;100970.63;;;27.68;59.56
76762;BME280;65705;51.032;13.790;2023-08-21T09:53:44;100972.56;;;27.73;59.56
76762;BME280;65705;51.032;13.790;2023-08-21T09:56:10;100964.16;;;27.69;59.55
76762;BME280;65705;51.032;13.790;2023-08-21T09:58:37;100963.53;;;27.62;59.17
76762;BME280;65705;51.032;13.790;2023-08-21T10:01:07;100957.56;;;27.60;59.02
76762;BME280;65705;51.032;13.790;2023-08-21T10:03:41;100955.03;;;27.54;58.64
76762;BME280;65705;51.032;13.790;2023-08-21T10:06:11;100949.31;;;27.50;58.61
76762;BME280;65705;51.032;13.790;2023-08-21T10:08:37;100949.63;;;27.54;59.16
76762;BME280;65705;51.032;13.790;2023-08-21T10:11:07;100954.09;;;27.65;58.80
76762;BME280;65705;51.032;13.790;2023-08-21T10:13:35;100958.00;;;27.74;58.46
76762;BME280;65705;51.032;13.790;2023-08-21T10:16:02;100948.16;;;27.84;56.10
76762;BME280;65705;51.032;13.790;2023-08-21T10:18:35;100953.59;;;27.89;56.16
76762;BME280;65705;51.032;13.790;2023-08-21T10:21:11;100950.25;;;27.99;54.78
76762;BME280;65705;51.032;13.790;2023-08-21T10:23:38;100957.31;;;27.83;52.45
76762;BME280;65705;51.032;13.790;2023-08-21T10:26:10;100948.72;;;27.86;51.88
76762;BME280;65705;51.032;13.790;2023-08-21T10:31:39;100950.16;;;28.16;51.39
76762;BME280;65705;51.032;13.790;2023-08-21T10:34:07;100956.19;;;28.23;50.31
76762;BME280;65705;51.032;13.790;2023-08-21T10:39:18;100947.09;;;28.29;50.88
76762;BME280;65705;51.032;13.790;2023-08-21T10:41:56;100949.53;;;28.30;50.73
76762;BME280;65705;51.032;13.790;2023-08-21T10:44:37;100940.50;;;28.20;49.66
76762;BME280;65705;51.032;13.790;2023-08-21T10:47:16;100945.34;;;28.18;49.57
76762;BME280;65705;51.032;13.790;2023-08-21T10:49:46;100940.50;;;28.20;49.54
76762;BME280;65705;51.032;13.790;2023-08-21T10:52:13;100943.00;;;28.26;50.03
76762;BME280;65705;51.032;13.790;2023-08-21T10:54:50;100944.69;;;28.32;49.57
76762;BME280;65705;51.032;13.790;2023-08-21T10:57:16;100945.22;;;28.34;50.10
76762;BME280;65705;51.032;13.790;2023-08-21T10:59:59;100938.75;;;28.35;49.88
76762;BME280;65705;51.032;13.790;2023-08-21T11:02:27;100943.38;;;28.40;50.85
76762;BME280;65705;51.032;13.790;2023-08-21T11:04:55;100930.69;;;28.40;49.39
76762;BME280;65705;51.032;13.790;2023-08-21T11:07:21;100936.09;;;28.40;49.94
76762;BME280;65705;51.032;13.790;2023-08-21T11:09:48;100931.22;;;28.37;50.04
76762;BME280;65705;51.032;13.790;2023-08-21T11:12:22;100930.69;;;28.40;50.27
76762;BME280;65705;51.032;13.790;2023-08-21T11:14:49;100929.44;;;28.48;49.86
76762;BME280;65705;51.032;13.790;2023-08-21T11:17:15;100928.91;;;28.51;49.40
76762;BME280;65705;51.032;13.790;2023-08-21T11:19:42;100934.31;;;28.51;49.19
76762;BME280;65705;51.032;13.790;2023-08-21T11:22:08;100924.41;;;28.56;49.02
76762;BME280;65705;51.032;13.790;2023-08-21T11:27:06;100920.94;;;28.61;48.93
76762;BME280;65705;51.032;13.790;2023-08-21T11:29:39;100922.03;;;28.65;48.67
76762;BME280;65705;51.032;13.790;2023-08-21T11:32:15;100922.34;;;28.68;48.73
76762;BME280;65705;51.032;13.790;2023-08-21T11:34:52;100923.72;;;28.71;48.90
76762;BME280;65705;51.032;13.790;2023-08-21T11:37:19;100922.41;;;28.73;48.29
76762;BME280;65705;51.032;13.790;2023-08-21T11:39:50;100916.69;;;28.70;48.18
76762;BME280;65705;51.032;13.790;2023-08-21T11:42:18;100910.78;;;28.73;48.63
76762;BME280;65705;51.032;13.790;2023-08-21T11:44:47;100918.53;;;28.64;48.70
76762;BME280;65705;51.032;13.790;2023-08-21T11:47:13;100915.88;;;28.69;48.29
76762;BME280;65705;51.032;13.790;2023-08-21T11:49:40;100905.63;;;28.71;48.13
76762;BME280;65705;51.032;13.790;2023-08-21T11:52:10;100910.25;;;28.76;48.16
76762;BME280;65705;51.032;13.790;2023-08-21T11:54:38;100907.28;;;28.77;48.53
76762;BME280;65705;51.032;13.790;2023-08-21T11:57:12;100911.09;;;28.81;48.80
76762;BME280;65705;51.032;13.790;2023-08-21T11:59:39;100911.66;;;28.83;48.53
76762;BME280;65705;51.032;13.790;2023-08-21T12:02:10;100912.50;;;28.89;48.66
76762;BME280;65705;51.032;13.790;2023-08-21T12:04:39;100914.72;;;28.97;48.12
76762;BME280;65705;51.032;13.790;2023-08-21T12:07:04;100909.09;;;29.03;46.98
76762;BME280;65705;51.032;13.790;2023-08-21T12:09:30;100907.25;;;29.09;47.54
76762;BME280;65705;51.032;13.790;2023-08-21T12:11:56;100914.88;;;29.17;47.30
76762;BME280;65705;51.032;13.790;2023-08-21T12:14:22;100907.03;;;29.16;47.31
76762;BME280;65705;51.032;13.790;2023-08-21T12:16:48;100904.31;;;29.11;47.49
76762;BME280;65705;51.032;13.790;2023-08-21T12:19:14;100911.56;;;29.10;47.85
76762;BME280;65705;51.032;13.790;2023-08-21T12:21:40;100908.38;;;29.13;47.09
76762;BME280;65705;51.032;13.790;2023-08-21T12:24:06;100909.94;;;29.09;47.38
76762;BME280;65705;51.032;13.790;2023-08-21T12:26:34;100906.44;;;29.08;47.34
76762;BME280;65705;51.032;13.790;2023-08-21T12:29:01;100904.63;;;29.19;47.06
76762;BME280;65705;51.032;13.790;2023-08-21T12:31:28;100921.16;;;29.23;46.58
76762;BME280;65705;51.032;13.790;2023-08-21T12:33:54;100912.00;;;29.29;46.57
76762;BME280;65705;51.032;13.790;2023-08-21T12:36:20;100907.16;;;29.36;47.52
76762;BME280;65705;51.032;13.790;2023-08-21T12:38:45;100915.00;;;29.37;45.71
76762;BME280;65705;51.032;13.790;2023-08-21T12:41:11;100911.19;;;29.33;45.68
76762;BME280;65705;51.032;13.790;2023-08-21T12:43:37;100915.19;;;29.26;45.90
76762;BME280;65705;51.032;13.790;2023-08-21T12:46:02;100911.16;;;29.28;45.95
76762;BME280;65705;51.032;13.790;2023-08-21T12:48:28;100909.56;;;29.27;46.21
76762;BME280;65705;51.032;13.790;2023-08-21T12:50:54;100905.75;;;29.28;46.03
76762;BME280;65705;51.032;13.790;2023-08-21T12:53:20;100902.06;;;29.44;46.47